Time;durP1;ratioP1;P1;durP2;ratioP2;P2;SDS_P1;SDS_P2;PMS_P1;PMS_P2;Temp;Humidity;BMP_temperature;BMP_pressure;BME280_temperature;BME280_humidity;BME280_pressure;Samples;Min_cycle;Max_cycle;Signal;HPM_P1;HPM_P2
2024/02/04 00:01:27;;;;;;;2.90;1.03;;;8.90;99.90;;;9.36;100.00;99061.59;4980590;28;20972;-78
2024/02/04 00:03:55;;;;;;;2.00;1.30;;;9.00;99.90;;;9.37;100.00;99059.81;4980710;28;20492;-78
2024/02/04 00:06:24;;;;;;;2.13;1.20;;;9.00;99.90;;;9.37;100.00;99052.00;4980780;28;20729;-78
2024/02/04 00:08:52;;;;;;;1.57;1.10;;;8.90;99.90;;;9.33;100.00;99054.09;4984998;28;20534;-78
2024/02/04 00:11:22;;;;;;;1.00;0.90;;;8.80;99.90;;;9.36;100.00;99043.34;4986024;28;21157;-78
2024/02/04 00:13:53;;;;;;;1.70;1.10;;;8.80;99.90;;;9.29;100.00;99037.09;4985487;28;20496;-78
2024/02/04 00:16:22;;;;;;;1.20;1.10;;;8.80;99.90;;;9.34;100.00;99045.25;4984315;28;20463;-78
2024/02/04 00:18:51;;;;;;;2.50;1.40;;;8.80;99.90;;;9.35;100.00;99044.28;4983514;28;20464;-79
2024/02/04 00:21:19;;;;;;;1.57;1.10;;;8.80;99.90;;;9.35;100.00;99036.47;4986407;28;20475;-78
2024/02/04 00:23:48;;;;;;;1.13;1.03;;;8.90;99.90;;;9.36;100.00;99040.72;4985325;28;21483;-78
2024/02/04 00:26:16;;;;;;;1.30;1.20;;;8.90;99.90;;;9.34;100.00;99036.59;4984036;28;20826;-78
2024/02/04 00:28:46;;;;;;;1.57;1.47;;;8.90;99.90;;;9.35;100.00;99040.88;4982825;28;20840;-78
2024/02/04 00:31:15;;;;;;;1.70;1.40;;;8.80;99.90;;;9.35;100.00;99031.25;4983777;28;21033;-77
2024/02/04 00:33:43;;;;;;;1.10;1.00;;;8.90;99.90;;;9.30;100.00;99023.03;4983627;28;20463;-78
2024/02/04 00:36:12;;;;;;;1.37;1.27;;;8.80;99.90;;;9.29;100.00;99025.81;4983609;28;20483;-78
2024/02/04 00:38:41;;;;;;;1.40;1.30;;;8.80;99.90;;;9.29;100.00;99029.25;4982674;28;20464;-78
2024/02/04 00:41:09;;;;;;;1.23;1.13;;;8.80;99.90;;;9.30;100.00;99043.13;4983895;28;20478;-78
2024/02/04 00:43:37;;;;;;;1.30;1.20;;;8.70;99.90;;;9.24;100.00;99026.28;4983948;28;21847;-78
2024/02/04 00:46:10;;;;;;;1.47;1.37;;;8.70;99.90;;;9.25;100.00;99021.88;4984476;28;20523;-78
2024/02/04 00:48:40;;;;;;;1.40;1.30;;;8.70;99.90;;;9.26;100.00;99032.19;4983910;28;20554;-78
2024/02/04 00:51:09;;;;;;;4.50;1.60;;;8.70;99.90;;;9.26;100.00;99024.34;4983885;28;20505;-78
2024/02/04 00:53:38;;;;;;;1.40;1.30;;;8.70;99.90;;;9.27;100.00;99030.38;4982624;28;20470;-78
2024/02/04 00:56:07;;;;;;;1.97;1.70;;;8.70;99.90;;;9.26;100.00;99029.56;4982541;28;20527;-78
2024/02/04 00:58:36;;;;;;;1.57;1.33;;;8.80;99.90;;;9.28;100.00;99032.84;4983600;28;20482;-78
2024/02/04 01:01:05;;;;;;;1.30;1.20;;;8.70;99.90;;;9.27;100.00;99027.75;4984267;28;20536;-78
2024/02/04 01:03:35;;;;;;;1.43;1.20;;;8.80;99.90;;;9.30;100.00;99038.72;4982897;28;20502;-78
2024/02/04 01:06:04;;;;;;;2.57;1.47;;;8.80;99.90;;;9.30;100.00;99035.31;4983150;28;20468;-78
2024/02/04 01:08:34;;;;;;;1.20;1.10;;;8.90;99.90;;;9.29;100.00;99021.44;4982931;28;20457;-78
2024/02/04 01:11:02;;;;;;;1.83;1.30;;;9.00;99.90;;;9.26;100.00;99020.91;4983015;28;20543;-78
2024/02/04 01:13:31;;;;;;;1.10;1.00;;;8.90;99.90;;;9.26;100.00;99021.75;4983853;28;20475;-78
2024/02/04 01:15:59;;;;;;;1.50;1.27;;;8.90;99.90;;;9.26;100.00;99029.56;4982609;28;20555;-78
2024/02/04 01:18:28;;;;;;;1.40;1.30;;;8.80;99.90;;;9.26;100.00;99029.56;4982463;28;20473;-78
2024/02/04 01:20:58;;;;;;;1.37;1.27;;;8.80;99.90;;;9.21;100.00;99023.97;4983752;28;20561;-78
2024/02/04 01:23:26;;;;;;;1.60;1.40;;;8.70;99.90;;;9.20;100.00;99031.97;4982982;28;20514;-78
2024/02/04 01:25:55;;;;;;;1.53;1.20;;;8.70;99.90;;;9.23;100.00;99050.75;4983491;28;20464;-78
2024/02/04 01:28:23;;;;;;;1.53;1.10;;;8.60;99.90;;;9.26;100.00;99052.25;4983422;28;20464;-78
2024/02/04 01:30:51;;;;;;;1.20;1.10;;;8.80;99.90;;;9.21;100.00;99050.09;4982717;28;20495;-78
2024/02/04 01:33:20;;;;;;;1.20;1.10;;;8.80;99.90;;;9.26;100.00;99057.47;4981621;28;20471;-78
2024/02/04 01:35:48;;;;;;;1.30;1.20;;;8.80;99.90;;;9.23;100.00;99037.72;4982667;28;20476;-79
2024/02/04 01:38:18;;;;;;;1.40;1.30;;;8.90;99.90;;;9.22;100.00;99041.28;4982586;28;20915;-78
2024/02/04 01:40:47;;;;;;;1.37;1.20;;;8.90;99.90;;;9.20;100.00;99032.78;4982097;28;20912;-78
2024/02/04 01:43:15;;;;;;;3.57;1.00;;;8.70;99.90;;;9.22;100.00;99025.63;4983243;28;20997;-78
2024/02/04 01:45:44;;;;;;;3.57;1.10;;;8.70;99.90;;;9.20;100.00;99027.56;4982846;28;20460;-78
2024/02/04 01:48:14;;;;;;;1.50;1.30;;;8.60;99.90;;;9.24;100.00;99031.50;4982485;28;20475;-78
2024/02/04 01:50:44;;;;;;;1.03;0.93;;;8.70;99.90;;;9.26;100.00;99026.97;4982963;28;20480;-78
2024/02/04 01:53:13;;;;;;;1.30;1.20;;;8.70;99.90;;;9.24;100.00;99034.13;4981890;28;20468;-78
2024/02/04 01:55:43;;;;;;;1.30;1.10;;;8.80;99.90;;;9.23;100.00;99034.28;4982417;28;20456;-79
2024/02/04 01:58:11;;;;;;;1.60;1.30;;;8.80;99.90;;;9.24;100.00;99039.31;4982126;28;20959;-78
2024/02/04 02:00:40;;;;;;;1.00;0.90;;;8.80;99.90;;;9.21;100.00;99041.44;4982170;28;20534;-78
2024/02/04 02:03:12;;;;;;;1.67;1.17;;;8.70;99.90;;;9.17;100.00;99035.69;4982363;28;20490;-78
2024/02/04 02:05:41;;;;;;;1.43;1.20;;;8.60;99.90;;;9.22;100.00;99038.69;4983544;28;20496;-78
2024/02/04 02:08:11;;;;;;;1.10;1.00;;;8.60;99.90;;;9.21;100.00;99034.41;4981623;28;20474;-78
2024/02/04 02:10:42;;;;;;;1.23;1.00;;;8.70;99.90;;;9.22;100.00;99043.06;4982656;28;21056;-78
2024/02/04 02:13:21;;;;;;;2.50;1.20;;;8.80;99.90;;;9.22;100.00;99040.47;4982319;28;20542;-76
2024/02/04 02:15:55;;;;;;;1.10;1.00;;;8.80;99.90;;;9.21;100.00;99038.81;4981427;28;20715;-78
2024/02/04 02:18:38;;;;;;;1.20;1.10;;;8.70;99.90;;;9.19;100.00;99044.22;4981634;28;20989;-79
2024/02/04 02:21:34;;;;;;;1.17;0.90;;;8.70;99.90;;;9.20;100.00;99040.59;4981128;28;20833;-78
2024/02/04 02:24:12;;;;;;;1.30;1.20;;;8.80;99.90;;;9.20;100.00;99055.47;4982596;28;20707;-78
2024/02/04 02:26:43;;;;;;;1.20;0.93;;;8.60;99.90;;;9.21;100.00;99041.44;4982464;28;20476;-77
2024/02/04 02:29:11;;;;;;;1.10;1.00;;;8.70;99.90;;;9.23;100.00;99042.94;4981856;28;20479;-78
2024/02/04 02:31:42;;;;;;;1.30;1.20;;;8.70;99.90;;;9.27;100.00;99048.63;4980549;28;20566;-78
2024/02/04 02:34:17;;;;;;;2.53;1.20;;;8.70;99.90;;;9.22;100.00;99043.91;4981175;28;20455;-78
2024/02/04 02:37:21;;;;;;;1.53;1.20;;;8.70;99.90;;;9.25;100.00;99051.41;4981614;28;20746;-78
2024/02/04 02:39:59;;;;;;;1.37;1.13;;;8.70;99.90;;;9.22;100.00;99043.91;4982528;28;20466;-78
2024/02/04 02:42:31;;;;;;;1.17;1.07;;;8.70;99.90;;;9.23;100.00;99037.72;4980804;28;20471;-77
2024/02/04 02:45:02;;;;;;;0.80;0.80;;;8.60;99.90;;;9.29;100.00;99031.88;4980842;28;20916;-78
2024/02/04 02:47:31;;;;;;;1.10;0.93;;;8.80;99.90;;;9.28;100.00;99027.63;4981316;28;20456;-78
2024/02/04 02:50:01;;;;;;;1.43;1.07;;;8.70;99.90;;;9.26;100.00;99016.53;4980679;28;20546;-78
2024/02/04 02:52:30;;;;;;;1.73;1.10;;;8.90;99.90;;;9.25;100.00;99014.88;4979656;28;20938;-78
2024/02/04 02:54:58;;;;;;;1.23;1.13;;;8.80;99.90;;;9.26;100.00;99021.75;4980907;28;21045;-78
2024/02/04 02:57:28;;;;;;;0.80;0.80;;;8.70;99.90;;;9.27;100.00;99012.09;4981315;28;20970;-79
2024/02/04 02:59:57;;;;;;;1.20;1.10;;;8.90;99.90;;;9.27;100.00;99002.47;4981628;28;20460;-78
2024/02/04 03:02:25;;;;;;;5.10;0.90;;;8.80;99.90;;;9.29;100.00;98995.34;4980320;28;20490;-78
2024/02/04 03:04:53;;;;;;;1.10;1.00;;;8.80;99.90;;;9.31;100.00;98998.59;4980292;28;20468;-78
2024/02/04 03:07:22;;;;;;;1.00;0.90;;;8.80;99.90;;;9.27;100.00;99002.47;4981236;28;20452;-78
2024/02/04 03:09:50;;;;;;;1.30;1.10;;;8.80;99.90;;;9.30;100.00;99002.16;4980972;28;20456;-78
2024/02/04 03:12:19;;;;;;;2.20;1.00;;;8.80;99.90;;;9.33;100.00;99006.28;4979789;28;20522;-78
2024/02/04 03:14:48;;;;;;;1.00;0.80;;;8.90;99.90;;;9.30;100.00;99007.38;4979716;28;20465;-79
2024/02/04 03:17:20;;;;;;;1.17;1.07;;;8.90;99.90;;;9.19;100.00;99005.06;4981153;28;20979;-78
2024/02/04 03:19:51;;;;;;;1.13;1.03;;;8.70;99.90;;;9.21;100.00;99002.28;4981356;28;20502;-78
2024/02/04 03:22:21;;;;;;;1.43;0.70;;;8.70;99.90;;;9.21;100.00;99008.31;4980938;28;20472;-78
2024/02/04 03:24:49;;;;;;;2.90;1.10;;;8.70;99.90;;;9.11;100.00;98997.19;4980860;28;20475;-78
2024/02/04 03:27:19;;;;;;;1.20;0.90;;;8.60;99.90;;;9.14;100.00;98993.44;4980316;28;20464;-78
2024/02/04 03:29:49;;;;;;;0.80;0.80;;;8.60;99.90;;;9.10;100.00;98983.31;4981538;28;20468;-78
2024/02/04 03:32:18;;;;;;;0.83;0.83;;;8.60;99.90;;;9.16;100.00;98983.69;4979974;28;20494;-78
2024/02/04 03:34:46;;;;;;;2.20;1.20;;;8.60;99.90;;;9.13;100.00;98969.13;4980182;28;20550;-79
2024/02/04 03:37:14;;;;;;;1.00;0.90;;;8.60;99.90;;;9.12;100.00;98977.13;4981028;28;20825;-78
2024/02/04 03:39:43;;;;;;;0.80;0.80;;;8.60;99.90;;;9.07;100.00;98972.38;4980402;28;20471;-78
2024/02/04 03:42:11;;;;;;;0.90;0.80;;;8.40;99.90;;;9.06;100.00;98975.94;4977308;28;20469;-78
2024/02/04 03:44:40;;;;;;;0.80;0.80;;;8.50;99.90;;;9.07;100.00;98970.59;4980987;28;20475;-78
2024/02/04 03:47:10;;;;;;;0.80;0.80;;;8.50;99.90;;;9.07;100.00;98969.75;4980153;28;20845;-78
2024/02/04 03:49:38;;;;;;;0.90;0.77;;;8.50;99.90;;;9.09;100.00;98979.06;4980183;28;20460;-78
2024/02/04 03:52:07;;;;;;;1.10;0.97;;;8.50;99.90;;;9.13;100.00;98976.97;4980241;28;20530;-78
2024/02/04 03:54:35;;;;;;;1.10;1.00;;;8.50;99.90;;;9.14;100.00;98969.94;4979169;28;20559;-78
2024/02/04 03:57:04;;;;;;;0.80;0.77;;;8.50;99.90;;;9.10;100.00;98970.28;4979824;28;20472;-79
2024/02/04 03:59:32;;;;;;;0.90;0.80;;;8.60;99.90;;;9.13;100.00;98971.75;4980872;28;20510;-79
2024/02/04 04:02:01;;;;;;;1.10;0.87;;;8.60;99.90;;;9.11;100.00;98971.09;4980092;28;20500;-78
2024/02/04 04:04:30;;;;;;;0.80;0.80;;;8.50;99.90;;;9.09;100.00;98967.84;4980784;28;20867;-78
2024/02/04 04:06:59;;;;;;;0.80;0.80;;;8.70;99.90;;;9.10;100.00;98974.66;4980248;28;20495;-78
2024/02/04 04:09:28;;;;;;;0.90;0.73;;;8.60;99.90;;;9.09;100.00;98973.06;4980365;28;20467;-78
2024/02/04 04:11:57;;;;;;;0.70;0.70;;;8.60;99.90;;;9.08;100.00;98971.41;4978185;28;20498;-78
2024/02/04 04:14:25;;;;;;;0.93;0.83;;;8.60;99.90;;;9.08;100.00;98976.63;4980243;28;20465;-78
2024/02/04 04:16:54;;;;;;;0.80;0.70;;;8.50;99.90;;;9.11;100.00;98981.53;4979804;28;20487;-78
2024/02/04 04:19:22;;;;;;;1.23;1.00;;;8.50;99.90;;;9.09;100.00;98973.06;4980992;28;20455;-78
2024/02/04 04:21:52;;;;;;;0.70;0.60;;;8.60;99.90;;;9.07;100.00;98970.59;4979039;28;20463;-78
2024/02/04 04:24:22;;;;;;;0.80;0.70;;;8.60;99.90;;;9.07;100.00;98967.16;4979064;28;20497;-78
2024/02/04 04:26:50;;;;;;;1.20;0.80;;;8.40;99.90;;;9.09;100.00;98970.44;4980470;28;20460;-78
2024/02/04 04:29:19;;;;;;;1.10;0.80;;;8.50;99.90;;;9.04;100.00;98973.50;4974509;28;20460;-78
2024/02/04 04:31:48;;;;;;;0.80;0.80;;;8.60;99.90;;;9.03;100.00;98979.69;4975916;28;20479;-80
2024/02/04 04:34:18;;;;;;;0.77;0.67;;;8.50;99.90;;;9.04;100.00;98970.91;4974205;28;20470;-78
2024/02/04 04:36:47;;;;;;;0.80;0.70;;;8.60;99.90;;;9.08;100.00;98982.66;4976501;28;21105;-79
2024/02/04 04:39:16;;;;;;;0.80;0.70;;;8.60;99.90;;;9.07;100.00;98983.63;4977696;28;20470;-80
2024/02/04 04:41:46;;;;;;;1.20;0.90;;;8.70;99.90;;;9.02;100.00;98987.69;4977957;28;20460;-77
2024/02/04 04:44:14;;;;;;;0.70;0.60;;;8.50;99.90;;;9.02;100.00;98983.25;4974324;28;21005;-79
2024/02/04 04:46:43;;;;;;;2.57;0.70;;;8.50;99.90;;;9.00;100.00;98976.56;4976672;28;20545;-78
2024/02/04 04:49:11;;;;;;;0.90;0.70;;;8.60;99.90;;;9.00;100.00;98972.16;4978550;28;20476;-79
2024/02/04 04:51:40;;;;;;;0.90;0.70;;;8.60;99.90;;;9.00;100.00;98973.94;4976698;28;20666;-79
2024/02/04 04:54:08;;;;;;;0.70;0.60;;;8.50;99.90;;;9.03;100.00;98974.47;4976677;28;20499;-79
2024/02/04 04:56:41;;;;;;;1.30;0.67;;;8.50;99.90;;;9.04;100.00;98968.28;4977872;28;20468;-78
2024/02/04 04:59:11;;;;;;;57.00;32.70;;;8.50;99.90;;;9.04;100.00;98975.28;4978155;28;20514;-78
2024/02/04 05:01:46;;;;;;;1.10;1.00;;;8.40;99.90;;;9.01;100.00;98971.22;4978635;28;20487;-78
2024/02/04 05:04:15;;;;;;;0.73;0.73;;;8.50;99.90;;;9.02;100.00;98961.59;4982185;28;20957;-78
2024/02/04 05:06:43;;;;;;;2.27;0.83;;;8.50;99.90;;;9.07;100.00;98951.50;4982743;28;20475;-77
2024/02/04 05:09:12;;;;;;;0.70;0.70;;;8.50;99.90;;;9.02;100.00;98948.56;4984482;28;20793;-78
2024/02/04 05:11:42;;;;;;;1.27;0.80;;;8.50;99.90;;;9.01;100.00;98955.56;4984031;28;21021;-78
2024/02/04 05:14:10;;;;;;;0.70;0.70;;;8.40;99.90;;;8.99;100.00;98962.69;4981823;28;20542;-78
2024/02/04 05:16:38;;;;;;;0.80;0.80;;;8.50;99.90;;;8.98;100.00;98965.47;4983670;28;20522;-78
2024/02/04 05:19:07;;;;;;;0.70;0.60;;;8.50;99.90;;;8.99;100.00;98967.09;4983440;28;21008;-78
2024/02/04 05:21:40;;;;;;;0.80;0.80;;;8.50;99.90;;;9.02;100.00;98956.38;4983043;28;20467;-77
2024/02/04 05:24:08;;;;;;;0.70;0.70;;;8.50;99.90;;;9.00;100.00;98960.91;4981671;28;20475;-78
2024/02/04 05:26:37;;;;;;;0.77;0.70;;;8.50;99.90;;;8.99;100.00;98954.06;4984092;28;20522;-78
2024/02/04 05:29:06;;;;;;;1.13;0.70;;;8.60;99.90;;;8.97;100.00;98956.00;4983252;28;20494;-78
2024/02/04 05:31:40;;;;;;;0.80;0.70;;;8.40;99.90;;;8.99;100.00;98956.66;4982761;28;20954;-78
2024/02/04 05:34:09;;;;;;;0.80;0.60;;;8.50;99.90;;;8.96;100.00;98951.75;4982959;28;20507;-78
2024/02/04 05:36:38;;;;;;;0.80;0.70;;;8.40;99.90;;;8.96;100.00;98949.97;4982103;28;20468;-78
2024/02/04 05:39:20;;;;;;;0.80;0.73;;;8.40;99.90;;;9.00;100.00;98953.09;4983725;28;20559;-77
2024/02/04 05:41:56;;;;;;;0.73;0.67;;;8.40;99.90;;;8.94;100.00;98966.75;4983645;28;20937;-78
2024/02/04 05:44:26;;;;;;;1.50;0.87;;;8.40;99.90;;;8.95;100.00;98961.41;4982974;28;20857;-77
2024/02/04 05:46:54;;;;;;;0.93;0.87;;;8.50;99.90;;;8.99;100.00;98962.69;4982273;28;20460;-78
2024/02/04 05:49:23;;;;;;;0.80;0.70;;;8.50;99.90;;;9.00;100.00;98968.72;4983171;28;20916;-78
2024/02/04 05:51:51;;;;;;;0.83;0.70;;;8.60;99.90;;;8.99;100.00;98964.47;4979278;28;20460;-80
2024/02/04 05:54:21;;;;;;;0.80;0.80;;;8.60;99.90;;;8.95;100.00;98977.03;4977182;28;20549;-79
2024/02/04 05:56:50;;;;;;;0.80;0.73;;;8.60;99.90;;;8.95;100.00;98986.66;4981593;28;20456;-78
2024/02/04 05:59:18;;;;;;;0.80;0.60;;;8.50;99.90;;;8.95;100.00;98976.22;4980795;28;20530;-78
2024/02/04 06:01:48;;;;;;;0.70;0.70;;;8.40;99.90;;;8.99;100.00;98974.91;4980231;28;20555;-78
2024/02/04 06:04:17;;;;;;;0.80;0.70;;;8.50;99.90;;;9.02;100.00;98969.41;4978210;28;20498;-77
2024/02/04 06:06:47;;;;;;;0.70;0.70;;;8.50;99.90;;;8.99;100.00;98967.91;4977900;28;20558;-78
2024/02/04 06:09:15;;;;;;;1.17;0.70;;;8.50;99.90;;;9.03;100.00;98969.25;4980460;28;20546;-78
2024/02/04 06:11:46;;;;;;;4.43;2.53;;;8.60;99.90;;;9.02;100.00;98967.59;4979506;28;20470;-81
2024/02/04 06:14:15;;;;;;;1.83;1.60;;;8.60;99.90;;;9.03;100.00;98971.84;4980200;28;20499;-78
2024/02/04 06:16:44;;;;;;;22.63;15.47;;;8.60;99.90;;;9.02;100.00;98970.22;4979682;28;20464;-80
2024/02/04 06:19:14;;;;;;;5.00;3.07;;;8.60;99.90;;;9.06;100.00;98963.72;4977318;28;20464;-78
2024/02/04 06:21:45;;;;;;;0.90;0.80;;;8.60;99.90;;;9.04;100.00;98963.06;4980250;28;20464;-79
2024/02/04 06:24:14;;;;;;;1.10;1.00;;;8.60;99.90;;;9.06;100.00;98961.09;4978403;28;20472;-79
2024/02/04 06:26:42;;;;;;;0.80;0.80;;;8.50;99.90;;;9.03;100.00;98964.03;4978558;28;20472;-79
2024/02/04 06:29:11;;;;;;;0.80;0.80;;;8.60;99.90;;;9.06;100.00;98968.09;4978580;28;20769;-80
2024/02/04 06:31:39;;;;;;;0.97;0.80;;;8.60;99.90;;;9.05;100.00;98961.28;4979970;28;20490;-79
2024/02/04 06:34:08;;;;;;;1.00;0.90;;;8.60;99.90;;;9.03;100.00;98956.19;4977355;28;21088;-78
2024/02/04 06:36:38;;;;;;;0.90;0.80;;;8.50;99.90;;;9.02;100.00;98949.34;4977558;28;20472;-79
2024/02/04 06:39:08;;;;;;;1.00;0.90;;;8.40;99.90;;;9.04;100.00;98949.19;4977852;28;20510;-79
2024/02/04 06:41:36;;;;;;;1.37;1.00;;;8.50;99.90;;;9.06;100.00;98944.63;4978058;28;20467;-79
2024/02/04 06:44:06;;;;;;;0.77;0.77;;;8.50;99.90;;;9.06;100.00;98947.25;4977901;28;20886;-79
2024/02/04 06:46:34;;;;;;;1.07;0.97;;;8.60;99.90;;;9.07;100.00;98954.09;4974846;28;20460;-79
2024/02/04 06:49:02;;;;;;;1.40;0.83;;;8.60;99.90;;;9.03;100.00;98947.56;4977343;28;20467;-79
2024/02/04 06:51:31;;;;;;;1.10;1.00;;;8.70;99.90;;;9.07;100.00;98948.88;4976719;28;20464;-79
2024/02/04 06:54:01;;;;;;;1.00;0.90;;;8.70;99.90;;;9.01;100.00;98958.16;4976463;28;20595;-80
2024/02/04 06:56:30;;;;;;;1.00;0.90;;;8.60;99.90;;;9.04;100.00;98964.84;4977982;28;20459;-79
2024/02/04 06:58:58;;;;;;;0.80;0.80;;;8.60;99.90;;;9.01;100.00;98965.16;4979020;28;21176;-79
2024/02/04 07:01:26;;;;;;;1.17;1.03;;;8.60;99.90;;;9.02;100.00;98964.19;4977302;28;21027;-79
2024/02/04 07:03:55;;;;;;;5.20;1.07;;;8.50;99.90;;;9.04;100.00;98975.28;4978252;28;20486;-78
2024/02/04 07:06:23;;;;;;;0.93;0.83;;;8.50;99.90;;;9.03;100.00;98979.69;4977053;28;20477;-78
2024/02/04 07:08:52;;;;;;;1.43;1.03;;;8.50;99.90;;;9.04;100.00;98976.09;4979151;28;20468;-79
2024/02/04 07:11:22;;;;;;;1.10;1.00;;;8.50;99.90;;;8.92;100.00;98960.88;4975525;28;20471;-79
2024/02/04 07:13:51;;;;;;;0.97;0.80;;;8.50;99.90;;;8.95;100.00;98969.22;4974938;28;20758;-79
2024/02/04 07:16:19;;;;;;;1.10;1.00;;;8.50;99.90;;;8.95;100.00;98961.41;4973650;28;20713;-80
2024/02/04 07:18:48;;;;;;;0.80;0.80;;;8.60;99.90;;;8.97;100.00;98953.41;4977793;28;20498;-78
2024/02/04 07:21:16;;;;;;;13.63;9.00;;;8.60;99.90;;;8.92;100.00;98966.09;4975616;28;20998;-79
2024/02/04 07:23:45;;;;;;;1.20;1.10;;;8.50;99.90;;;8.92;100.00;98966.91;4976508;28;20939;-79
2024/02/04 07:26:14;;;;;;;1.10;1.00;;;8.40;99.90;;;8.91;100.00;98960.06;4978570;28;20479;-79
2024/02/04 07:28:43;;;;;;;1.53;0.90;;;8.40;99.90;;;8.93;100.00;98959.88;4976614;28;20472;-79
2024/02/04 07:31:12;;;;;;;1.10;0.80;;;8.50;99.90;;;8.94;100.00;98964.16;4976869;28;20471;-80
2024/02/04 07:33:41;;;;;;;0.97;0.87;;;8.40;99.90;;;8.94;100.00;98953.72;4975734;28;20542;-79
2024/02/04 07:36:11;;;;;;;0.80;0.80;;;8.40;99.90;;;8.97;100.00;98958.63;4976749;28;20480;-79
2024/02/04 07:38:39;;;;;;;0.83;0.80;;;8.40;99.90;;;9.01;100.00;98965.16;4977897;28;20476;-79
2024/02/04 07:41:08;;;;;;;0.70;0.70;;;8.50;99.90;;;9.02;100.00;98972.03;4976865;28;20467;-79
2024/02/04 07:43:36;;;;;;;2.40;0.80;;;8.50;99.90;;;9.03;100.00;98963.22;4976535;28;20468;-80
2024/02/04 07:46:08;;;;;;;0.80;0.80;;;8.50;99.90;;;9.01;100.00;98973.81;4974664;28;20467;-80
2024/02/04 07:48:36;;;;;;;1.03;0.93;;;8.50;99.90;;;9.02;100.00;98977.25;4977704;28;20459;-79
2024/02/04 07:51:05;;;;;;;0.80;0.70;;;8.50;99.90;;;8.98;100.00;98968.91;4978748;28;20510;-79
2024/02/04 07:53:34;;;;;;;0.80;0.70;;;8.50;99.90;;;8.98;100.00;98968.91;4975832;28;21081;-79
2024/02/04 07:56:03;;;;;;;0.70;0.70;;;8.60;99.90;;;9.03;100.00;98965.81;4977671;28;20469;-79
2024/02/04 07:58:31;;;;;;;1.40;1.07;;;8.60;99.90;;;9.05;100.00;98962.09;4977638;28;20468;-80
2024/02/04 08:01:00;;;;;;;0.80;0.80;;;8.50;99.90;;;9.02;100.00;98966.81;4974413;28;20460;-79
2024/02/04 08:03:30;;;;;;;0.80;0.80;;;8.40;99.90;;;9.02;100.00;98957.16;4975521;28;20517;-79
2024/02/04 08:05:58;;;;;;;1.03;0.93;;;8.60;99.90;;;9.02;100.00;98940.72;4975472;28;20885;-79
2024/02/04 08:08:27;;;;;;;1.63;1.00;;;8.50;99.90;;;9.10;100.00;98943.34;4974259;28;20530;-80
2024/02/04 08:10:56;;;;;;;1.00;0.90;;;8.60;99.90;;;9.08;100.00;98945.31;4976979;28;20470;-79
2024/02/04 08:13:29;;;;;;;0.90;0.90;;;8.60;99.90;;;9.08;100.00;98956.56;4975959;28;20482;-81
2024/02/04 08:15:57;;;;;;;5.20;2.67;;;8.70;99.90;;;9.09;100.00;98952.19;4974942;28;21109;-79
2024/02/04 08:18:25;;;;;;;4.13;1.03;;;8.50;99.90;;;9.08;100.00;98947.91;4975718;28;20467;-79
2024/02/04 08:20:55;;;;;;;1.30;1.20;;;8.50;99.90;;;9.04;100.00;98955.25;4975533;28;20468;-79
2024/02/04 08:23:24;;;;;;;1.83;1.10;;;8.60;99.90;;;9.06;100.00;98955.88;4973322;28;20463;-80
2024/02/04 08:25:52;;;;;;;2.80;0.80;;;8.50;99.90;;;9.10;100.00;98953.78;4975821;28;21037;-79
2024/02/04 08:28:21;;;;;;;1.03;0.80;;;8.60;99.90;;;9.08;100.00;98947.91;4976961;28;20466;-79
2024/02/04 08:30:49;;;;;;;11.00;6.67;;;8.70;99.90;;;9.08;100.00;98950.53;4974818;28;20467;-81
2024/02/04 08:33:18;;;;;;;2.93;1.57;;;8.60;99.90;;;9.10;100.00;98964.22;4977373;28;20977;-79
2024/02/04 08:35:47;;;;;;;0.90;0.90;;;8.50;99.90;;;9.09;100.00;98963.41;4981092;28;20506;-78
2024/02/04 08:38:17;;;;;;;0.80;0.70;;;8.60;99.90;;;9.09;100.00;98973.06;4979713;28;20475;-79
2024/02/04 08:40:45;;;;;;;1.00;0.90;;;8.50;99.90;;;9.10;100.00;98974.66;4980471;28;20456;-79
2024/02/04 08:43:14;;;;;;;1.17;1.07;;;8.60;99.90;;;9.13;100.00;98969.13;4978841;28;20513;-80
2024/02/04 08:45:44;;;;;;;1.20;1.10;;;8.70;99.90;;;9.15;100.00;98982.84;4978505;28;20507;-79
2024/02/04 08:48:13;;;;;;;1.10;1.00;;;8.70;99.90;;;9.19;100.00;98975.53;4978722;28;20531;-80
2024/02/04 08:50:41;;;;;;;1.10;1.00;;;8.60;99.90;;;9.13;100.00;98971.75;4979308;28;20774;-80
2024/02/04 08:53:10;;;;;;;1.23;0.97;;;8.50;99.90;;;9.13;100.00;98971.75;4980824;28;20784;-80
2024/02/04 08:55:40;;;;;;;1.10;1.00;;;8.60;99.90;;;9.06;100.00;98978.56;4980995;28;20503;-80
2024/02/04 08:58:08;;;;;;;1.17;1.07;;;8.60;99.90;;;9.03;100.00;98973.63;4977112;28;20472;-79
2024/02/04 09:00:37;;;;;;;2.00;1.43;;;8.70;99.90;;;8.99;100.00;98987.97;4979608;28;20477;-82
2024/02/04 09:03:06;;;;;;;1.10;1.00;;;8.50;99.90;;;8.96;100.00;98978.66;4977689;28;20460;-79
2024/02/04 09:05:34;;;;;;;2.03;1.07;;;8.40;99.90;;;8.97;100.00;98982.09;4977886;28;20472;-81
2024/02/04 09:08:03;;;;;;;33.33;19.43;;;8.40;99.90;;;9.03;100.00;98978.84;4976221;28;20467;-80
2024/02/04 09:10:32;;;;;;;1.40;1.30;;;8.50;99.90;;;9.07;100.00;98970.59;4979547;28;20459;-80
2024/02/04 09:13:01;;;;;;;2.10;1.10;;;8.60;99.90;;;9.10;100.00;98970.28;4978332;28;20458;-80
2024/02/04 09:15:30;;;;;;;1.10;1.00;;;8.70;99.90;;;9.10;100.00;98965.06;4978964;28;20491;-80
2024/02/04 09:17:59;;;;;;;1.13;1.03;;;8.60;99.90;;;9.11;100.00;98976.31;4980802;28;20570;-80
2024/02/04 09:20:28;;;;;;;1.10;1.00;;;8.70;99.90;;;9.08;100.00;98966.19;4979247;28;21015;-80
2024/02/04 09:22:56;;;;;;;8.67;6.03;;;8.60;99.90;;;9.04;100.00;98975.28;4980079;28;20495;-81
2024/02/04 09:25:26;;;;;;;1.63;1.53;;;8.60;99.90;;;9.10;100.00;98953.78;4977254;28;20555;-80
2024/02/04 09:27:55;;;;;;;1.20;1.10;;;8.60;99.90;;;9.10;100.00;98948.56;4975931;28;20467;-80
2024/02/04 09:30:24;;;;;;;1.10;1.00;;;8.70;99.90;;;9.09;100.00;98949.56;4977830;28;20562;-80
2024/02/04 09:32:53;;;;;;;1.00;0.90;;;8.70;99.90;;;9.15;100.00;98948.94;4981507;28;20463;-79
2024/02/04 09:35:22;;;;;;;1.00;0.90;;;8.70;99.90;;;9.14;100.00;98947.28;4980966;28;20487;-79
2024/02/04 09:37:51;;;;;;;0.90;0.80;;;8.70;99.90;;;9.13;100.00;98937.81;4984036;28;20468;-79
2024/02/04 09:40:23;;;;;;;1.00;0.90;;;8.60;99.90;;;9.14;100.00;98929.03;4981074;28;20471;-79
2024/02/04 09:42:53;;;;;;;1.43;0.97;;;8.60;99.90;;;9.08;100.00;98924.44;4985149;28;20456;-80
2024/02/04 09:45:24;;;;;;;0.90;0.90;;;8.60;99.90;;;9.08;100.00;98929.66;4982144;28;20825;-79
2024/02/04 09:47:55;;;;;;;1.20;1.03;;;8.60;99.90;;;9.12;100.00;98938.81;4982591;28;20463;-79
2024/02/04 09:50:24;;;;;;;0.93;0.90;;;8.70;99.90;;;9.11;100.00;98945.00;4982046;28;20456;-78
2024/02/04 09:52:59;;;;;;;1.10;1.00;;;8.70;99.90;;;9.17;100.00;98946.97;4980731;28;20491;-79
2024/02/04 09:55:30;;;;;;;1.00;0.90;;;8.80;99.90;;;9.20;100.00;98949.28;4982189;28;21002;-79
2024/02/04 09:57:59;;;;;;;2.10;1.03;;;8.70;99.90;;;9.18;100.00;98956.44;4983910;28;20551;-79
2024/02/04 10:00:34;;;;;;;1.00;0.90;;;8.70;99.90;;;9.21;100.00;98961.34;4982377;28;20497;-79
2024/02/04 10:03:05;;;;;;;1.20;1.10;;;8.70;99.90;;;9.19;100.00;98965.94;4981932;28;20555;-79
2024/02/04 10:05:34;;;;;;;1.37;1.00;;;8.70;99.90;;;9.18;100.00;98968.69;4982199;28;20546;-79
2024/02/04 10:08:03;;;;;;;1.10;1.00;;;8.80;99.90;;;9.20;100.00;98962.31;4982331;28;20470;-79
2024/02/04 10:10:32;;;;;;;1.20;1.10;;;8.90;99.90;;;9.17;100.00;98970.47;4982074;28;21049;-79
2024/02/04 10:13:07;;;;;;;0.83;0.83;;;8.60;99.90;;;9.15;100.00;98976.81;4981757;28;20826;-79
2024/02/04 10:15:37;;;;;;;1.00;0.80;;;8.60;99.90;;;9.18;100.00;98972.09;4980845;28;20480;-79
2024/02/04 10:18:07;;;;;;;0.90;0.90;;;8.60;99.90;;;9.19;100.00;98970.31;4981498;28;20526;-79
2024/02/04 10:20:36;;;;;;;3.93;1.00;;;8.70;99.90;;;9.18;100.00;98969.50;4981539;28;20472;-79
2024/02/04 10:23:05;;;;;;;1.17;1.07;;;8.70;99.90;;;9.20;100.00;98966.75;4983114;28;20463;-79
2024/02/04 10:25:33;;;;;;;1.50;1.07;;;8.80;99.90;;;9.23;100.00;98984.69;4981251;28;20998;-79
2024/02/04 10:28:02;;;;;;;1.07;0.97;;;8.80;99.90;;;9.20;100.00;98975.38;4982937;28;20464;-79
2024/02/04 10:30:31;;;;;;;1.00;0.90;;;8.70;99.90;;;9.18;100.00;98966.06;4980509;28;20466;-79
2024/02/04 10:33:01;;;;;;;1.30;1.17;;;8.60;99.90;;;9.19;100.00;98968.53;4981063;28;20833;-79
2024/02/04 10:35:30;;;;;;;1.30;1.20;;;8.60;99.90;;;9.24;100.00;98968.88;4980625;28;20519;-80